Sauk City, Wisconsin
Current Conditions -  °F | °C
As of 12:35 PM on Friday 24 Oct 2014 (Local Time) from KC29 Reporting Station
Overcast Overcast  
Wind Chill: 56°   Ceiling: 500
Heat Index: 56°   Visibility: 10mi
Dew Point: 53°   Wind: 6mph
Humidity: 92%   Direction: 230°SW
Pressure: 30.02"   Gusts: NA
Location:  43.27°N, 89.72°W
Report Text: KC29 241735Z AUTO 23005KT 10SM OVC005 13/12 A3002 RMK AO1 T01310118
Loading
Personal Weather Stations






























Interactive Weather Map
Tropical Storm Tracking
New forecast layout! Learn more

10-Day Weather Forecast

Advertisements
Track Severe Weather on mobile